createdAt,value
2022-12-09T00:01:44.436Z,95817.72
2022-12-09T00:04:13.601Z,95830.34
2022-12-09T00:06:40.585Z,95828.41
2022-12-09T00:09:09.614Z,95834.91
2022-12-09T00:11:39.331Z,95828.44
2022-12-09T00:14:09.728Z,95841.41
2022-12-09T00:16:36.327Z,95854.75
2022-12-09T00:19:03.475Z,95851.69
2022-12-09T00:21:32.548Z,95841.75
2022-12-09T00:24:06.569Z,95840.63
2022-12-09T00:26:35.846Z,95832.63
2022-12-09T00:29:02.696Z,95820.44
2022-12-09T00:31:34.252Z,95816.59
2022-12-09T00:34:10.446Z,95819.25
2022-12-09T00:36:37.251Z,95816.97
2022-12-09T00:39:04.715Z,95812.41
2022-12-09T00:41:31.461Z,95810.13
2022-12-09T00:44:03.251Z,95807.44
2022-12-09T00:46:32.409Z,95800.97
2022-12-09T00:48:59.211Z,95810.13
2022-12-09T00:51:26.553Z,95808.22
2022-12-09T00:53:55.947Z,95808.19
2022-12-09T00:56:30.220Z,95811.28
2022-12-09T00:59:00.314Z,95797.53
2022-12-09T01:01:28.575Z,95798.31
2022-12-09T01:03:58.168Z,95797.16
2022-12-09T01:06:26.765Z,95786.09
2022-12-09T01:08:53.661Z,95787.22
2022-12-09T01:11:26.497Z,95782.66
2022-12-09T01:13:57.759Z,95782.31
2022-12-09T01:16:26.732Z,95781.88
2022-12-09T01:18:55.398Z,95786.50
2022-12-09T01:21:22.181Z,95789.53
2022-12-09T01:23:51.881Z,95789.91
2022-12-09T01:26:19.198Z,95793.72
2022-12-09T01:28:46.716Z,95783.81
2022-12-09T01:31:15.951Z,95776.19
2022-12-09T01:33:43.512Z,95783.44
2022-12-09T01:36:15.268Z,95781.16
2022-12-09T01:38:42.629Z,95775.81
2022-12-09T01:41:09.506Z,95773.16
2022-12-09T01:43:38.270Z,95769.31
2022-12-09T01:46:10.435Z,95771.59
2022-12-09T01:48:42.262Z,95763.97
2022-12-09T01:51:15.734Z,95761.69
2022-12-09T01:53:45.242Z,95755.25
2022-12-09T01:56:22.025Z,95759.00
2022-12-09T01:58:49.725Z,95758.66
2022-12-09T02:01:20.252Z,95741.50
2022-12-09T02:03:49.553Z,95745.69
2022-12-09T02:06:17.012Z,95740.34
2022-12-09T02:08:45.709Z,95731.59
2022-12-09T02:11:31.402Z,95731.59
2022-12-09T02:14:03.568Z,95733.13
2022-12-09T02:16:44.952Z,95726.63
2022-12-09T02:19:39.403Z,95729.31
2022-12-09T02:22:08.525Z,95720.16
2022-12-09T02:24:43.500Z,95717.50
2022-12-09T02:27:18.565Z,95723.22
2022-12-09T02:30:00.228Z,95729.69
2022-12-09T02:32:29.907Z,95719.41
2022-12-09T02:35:08.384Z,95711.41
2022-12-09T02:37:44.646Z,95714.44
2022-12-09T02:40:23.595Z,95709.50
2022-12-09T02:42:55.359Z,95706.47
2022-12-09T02:45:28.547Z,95701.88
2022-12-09T02:48:01.142Z,95698.06
2022-12-09T02:50:33.296Z,95695.75
2022-12-09T02:53:05.876Z,95690.06
2022-12-09T02:55:36.870Z,95680.16
2022-12-09T02:58:06.882Z,95680.91
2022-12-09T03:00:35.895Z,95671.78
2022-12-09T03:03:05.594Z,95678.63
2022-12-09T03:05:46.716Z,95673.69
2022-12-09T03:08:19.183Z,95666.06
2022-12-09T03:11:07.018Z,95661.88
2022-12-09T03:13:37.148Z,95663.00
2022-12-09T03:16:35.883Z,95654.63
2022-12-09T03:19:19.910Z,95646.25
2022-12-09T03:21:54.066Z,95646.25
2022-12-09T03:24:39.035Z,95640.94
2022-12-09T03:27:12.757Z,95634.06
2022-12-09T03:29:42.813Z,95632.53
2022-12-09T03:32:12.556Z,95622.28
2022-12-09T03:34:44.875Z,95630.66
2022-12-09T03:37:16.061Z,95626.44
2022-12-09T03:39:46.989Z,95614.28
2022-12-09T03:42:22.086Z,95614.66
2022-12-09T03:44:53.574Z,95615.78
2022-12-09T03:47:21.201Z,95615.41
2022-12-09T03:49:48.068Z,95609.34
2022-12-09T03:52:26.618Z,95613.13
2022-12-09T03:55:05.085Z,95606.66
2022-12-09T03:57:36.332Z,95607.03
2022-12-09T04:00:04.257Z,95607.03
2022-12-09T04:02:31.355Z,95602.09
2022-12-09T04:04:58.167Z,95597.91
2022-12-09T04:07:24.952Z,95589.91
2022-12-09T04:09:54.119Z,95597.53
2022-12-09T04:12:23.085Z,95581.91
2022-12-09T04:14:49.740Z,95584.19
2022-12-09T04:17:16.321Z,95575.84
2022-12-09T04:19:47.553Z,95576.59
2022-12-09T04:22:17.009Z,95573.16
2022-12-09T04:24:45.825Z,95570.47
2022-12-09T04:27:14.731Z,95570.09
2022-12-09T04:29:41.361Z,95570.50
2022-12-09T04:32:10.305Z,95568.56
2022-12-09T04:34:37.123Z,95571.63
2022-12-09T04:37:03.872Z,95565.53
2022-12-09T04:39:33.316Z,95560.97
2022-12-09T04:42:02.108Z,95555.28
2022-12-09T04:44:28.636Z,95565.16
2022-12-09T04:46:55.521Z,95554.88
2022-12-09T04:49:27.037Z,95557.16
2022-12-09T04:51:53.850Z,95559.84
2022-12-09T04:54:22.479Z,95561.34
2022-12-09T04:56:51.973Z,95560.19
2022-12-09T04:59:21.082Z,95550.28
2022-12-09T05:01:47.800Z,95552.97
2022-12-09T05:04:14.856Z,95549.47
2022-12-09T05:06:41.872Z,95547.56
2022-12-09T05:09:13.746Z,95554.06
2022-12-09T05:11:43.250Z,95549.91
2022-12-09T05:14:14.818Z,95542.66
2022-12-09T05:16:41.936Z,95538.50
2022-12-09T05:19:09.203Z,95538.53
2022-12-09T05:21:36.323Z,95539.25
2022-12-09T05:24:08.319Z,95540.41
2022-12-09T05:26:35.100Z,95533.19
2022-12-09T05:29:07.058Z,95532.78
2022-12-09T05:31:34.158Z,95530.91
2022-12-09T05:34:01.015Z,95529.72
2022-12-09T05:36:28.009Z,95533.94
2022-12-09T05:38:55.475Z,95527.84
2022-12-09T05:41:23.622Z,95524.41
2022-12-09T05:43:53.358Z,95528.63
2022-12-09T05:46:23.499Z,95528.63
2022-12-09T05:48:52.611Z,95525.22
2022-12-09T05:51:26.370Z,95527.88
2022-12-09T05:53:54.042Z,95527.09
2022-12-09T05:56:24.553Z,95532.81
2022-12-09T05:58:52.784Z,95529.00
2022-12-09T06:01:23.049Z,95525.19
2022-12-09T06:03:55.454Z,95526.72
2022-12-09T06:06:28.285Z,95536.59
2022-12-09T06:09:00.667Z,95538.16
2022-12-09T06:11:30.446Z,95533.94
2022-12-09T06:14:00.216Z,95538.53
2022-12-09T06:16:27.303Z,95536.63
2022-12-09T06:18:54.530Z,95529.00
2022-12-09T06:21:22.781Z,95521.38
2022-12-09T06:23:52.893Z,95519.84
2022-12-09T06:26:27.762Z,95519.47
2022-12-09T06:28:56.079Z,95511.03
2022-12-09T06:31:26.708Z,95506.84
2022-12-09T06:33:58.457Z,95506.09
2022-12-09T06:36:30.000Z,95501.53
2022-12-09T06:39:00.404Z,95501.16
2022-12-09T06:41:32.756Z,95495.81
2022-12-09T06:44:02.008Z,95506.13
2022-12-09T06:46:29.428Z,95506.13
2022-12-09T06:48:56.666Z,95503.84
2022-12-09T06:51:25.339Z,95512.59
2022-12-09T06:53:57.288Z,95511.84
2022-12-09T06:56:29.080Z,95506.13
2022-12-09T06:58:56.079Z,95504.59
2022-12-09T07:01:27.743Z,95505.38
2022-12-09T07:03:57.769Z,95505.38
2022-12-09T07:06:30.881Z,95503.06
2022-12-09T07:09:02.097Z,95495.09
2022-12-09T07:11:29.533Z,95495.84
2022-12-09T07:13:56.924Z,95490.16
2022-12-09T07:16:26.249Z,95488.56
2022-12-09T07:18:55.959Z,95484.00
2022-12-09T07:21:24.034Z,95488.56
2022-12-09T07:23:53.303Z,95485.94
2022-12-09T07:26:20.681Z,95481.38
2022-12-09T07:28:48.148Z,95487.84
2022-12-09T07:31:25.346Z,95485.19
2022-12-09T07:33:53.924Z,95490.16
2022-12-09T07:36:22.457Z,95485.94
2022-12-09T07:38:54.485Z,95488.97
2022-12-09T07:41:23.617Z,95482.50
2022-12-09T07:43:50.410Z,95482.53
2022-12-09T07:46:21.998Z,95487.06
2022-12-09T07:48:49.616Z,95478.69
2022-12-09T07:51:17.763Z,95476.41
2022-12-09T07:53:47.871Z,95476.41
2022-12-09T07:56:16.353Z,95478.69
2022-12-09T07:58:44.618Z,95480.94
2022-12-09T08:01:16.908Z,95485.53
2022-12-09T08:03:47.317Z,95489.69
2022-12-09T08:06:16.350Z,95493.53
2022-12-09T08:08:44.285Z,95500.75
2022-12-09T08:11:17.898Z,95499.63
2022-12-09T08:13:48.231Z,95492.28
2022-12-09T08:16:17.525Z,95498.75
2022-12-09T08:18:44.821Z,95492.31
2022-12-09T08:21:21.254Z,95483.91
2022-12-09T08:23:48.835Z,95485.38
2022-12-09T08:26:21.422Z,95478.59
2022-12-09T08:28:48.665Z,95485.03
2022-12-09T08:31:25.024Z,95497.25
2022-12-09T08:33:53.074Z,95484.25
2022-12-09T08:36:25.481Z,95478.97
2022-12-09T08:38:54.832Z,95469.03
2022-12-09T08:41:35.885Z,95467.88
2022-12-09T08:44:09.695Z,95466.00
2022-12-09T08:46:41.009Z,95473.97
2022-12-09T08:49:09.207Z,95478.13
2022-12-09T08:51:36.657Z,95476.16
2022-12-09T08:54:04.414Z,95480.38
2022-12-09T08:56:33.736Z,95482.34
2022-12-09T08:59:03.169Z,95484.59
2022-12-09T09:01:36.013Z,95492.66
2022-12-09T09:04:09.582Z,95481.97
2022-12-09T09:06:38.713Z,95491.84
2022-12-09T09:09:07.752Z,95495.94
2022-12-09T09:11:37.512Z,95494.13
2022-12-09T09:14:08.610Z,95496.03
2022-12-09T09:16:37.568Z,95489.94
2022-12-09T09:19:06.164Z,95492.59
2022-12-09T09:21:36.095Z,95495.63
2022-12-09T09:24:08.705Z,95496.78
2022-12-09T09:26:35.630Z,95491.84
2022-12-09T09:29:02.737Z,95494.16
2022-12-09T09:31:29.673Z,95493.78
2022-12-09T09:34:01.310Z,95493.78
2022-12-09T09:36:30.928Z,95488.06
2022-12-09T09:39:00.275Z,95484.63
2022-12-09T09:41:48.227Z,95482.69
2022-12-09T09:44:42.555Z,95483.84
2022-12-09T09:47:17.940Z,95490.34
2022-12-09T09:50:03.789Z,95474.69
2022-12-09T09:52:40.989Z,95483.06
2022-12-09T09:55:17.496Z,95473.91
2022-12-09T09:58:13.787Z,95462.81
2022-12-09T10:01:07.782Z,95468.91
2022-12-09T10:04:09.921Z,95454.81
2022-12-09T10:06:50.927Z,95454.78
2022-12-09T10:09:49.187Z,95454.38
2022-12-09T10:12:24.014Z,95457.03
2022-12-09T10:15:11.474Z,95455.13
2022-12-09T10:17:38.345Z,95452.47
2022-12-09T10:20:22.278Z,95447.50
2022-12-09T10:23:03.122Z,95446.75
2022-12-09T10:25:38.394Z,95449.03
2022-12-09T10:28:23.315Z,95439.75
2022-12-09T10:30:52.616Z,95440.22
2022-12-09T10:33:27.475Z,95435.16
2022-12-09T10:35:59.215Z,95433.50
2022-12-09T10:38:28.197Z,95422.59
2022-12-09T10:41:04.389Z,95424.00
2022-12-09T10:43:36.220Z,95422.50
2022-12-09T10:46:22.404Z,95427.16
2022-12-09T10:48:50.286Z,95412.69
2022-12-09T10:51:17.665Z,95415.66
2022-12-09T10:53:55.001Z,95410.28
2022-12-09T10:56:32.614Z,95411.50
2022-12-09T10:59:20.345Z,95408.53
2022-12-09T11:01:55.657Z,95401.75
2022-12-09T11:04:28.370Z,95393.13
2022-12-09T11:07:02.035Z,95396.47
2022-12-09T11:09:34.811Z,95405.53
2022-12-09T11:12:06.745Z,95400.09
2022-12-09T11:14:40.742Z,95407.44
2022-12-09T11:17:13.804Z,95394.97
2022-12-09T11:19:41.122Z,95388.41
2022-12-09T11:22:29.271Z,95387.25
2022-12-09T11:25:10.125Z,95380.28
2022-12-09T11:27:58.370Z,95379.09
2022-12-09T11:30:57.599Z,95376.53
2022-12-09T11:33:30.912Z,95375.75
2022-12-09T11:36:09.584Z,95367.28
2022-12-09T11:38:40.385Z,95375.50
2022-12-09T11:41:09.675Z,95376.63
2022-12-09T11:43:44.804Z,95375.38
2022-12-09T11:46:14.007Z,95378.75
2022-12-09T11:48:47.502Z,95371.59
2022-12-09T11:51:44.388Z,95369.56
2022-12-09T11:54:28.225Z,95383.78
2022-12-09T11:56:58.183Z,95381.59
2022-12-09T11:59:38.159Z,95372.75
2022-12-09T12:02:26.138Z,95376.25
2022-12-09T12:05:26.973Z,95375.56
2022-12-09T12:07:59.291Z,95368.50
2022-12-09T12:10:31.589Z,95372.16
2022-12-09T12:13:11.984Z,95374.50
2022-12-09T12:15:48.868Z,95378.91
2022-12-09T12:18:24.357Z,95383.59
2022-12-09T12:21:16.110Z,95373.81
2022-12-09T12:23:54.820Z,95380.16
2022-12-09T12:26:40.038Z,95370.47
2022-12-09T12:29:17.761Z,95378.25
2022-12-09T12:32:02.446Z,95375.22
2022-12-09T12:35:10.706Z,95376.97
2022-12-09T12:37:47.316Z,95376.63
2022-12-09T12:40:27.155Z,95372.63
2022-12-09T12:43:21.448Z,95366.69
2022-12-09T12:46:18.490Z,95371.78
2022-12-09T12:48:47.754Z,95367.53
2022-12-09T12:51:56.210Z,95367.00
2022-12-09T12:54:48.815Z,95366.06
2022-12-09T12:57:15.287Z,95360.44
2022-12-09T13:00:08.164Z,95359.28
2022-12-09T13:02:47.904Z,95365.59
2022-12-09T13:05:22.890Z,95359.72
2022-12-09T13:08:05.646Z,95365.28
2022-12-09T13:10:39.667Z,95368.53
2022-12-09T13:13:18.470Z,95368.06
2022-12-09T13:15:48.875Z,95354.41
2022-12-09T13:18:31.532Z,95369.78
2022-12-09T13:21:02.864Z,95371.72
2022-12-09T13:23:50.801Z,95377.94
2022-12-09T13:26:24.510Z,95385.59
2022-12-09T13:29:03.942Z,95381.31
2022-12-09T13:31:33.954Z,95382.28
2022-12-09T13:34:26.908Z,95385.59
2022-12-09T13:36:53.516Z,95386.16
2022-12-09T13:39:44.122Z,95390.53
2022-12-09T13:42:46.378Z,95395.06
2022-12-09T13:45:20.954Z,95394.31
2022-12-09T13:47:47.589Z,95396.66
2022-12-09T13:50:24.665Z,95402.94
2022-12-09T13:52:59.071Z,95404.38
2022-12-09T13:55:53.789Z,95397.84
2022-12-09T13:58:38.353Z,95408.19
2022-12-09T14:01:10.925Z,95407.41
2022-12-09T14:03:46.531Z,95411.69
2022-12-09T14:06:25.584Z,95414.16
2022-12-09T14:08:56.650Z,95409.94
2022-12-09T14:11:56.721Z,95413.44
2022-12-09T14:14:23.279Z,95416.03
2022-12-09T14:16:54.381Z,95416.84
2022-12-09T14:19:24.008Z,95419.38
2022-12-09T14:22:19.705Z,95419.44
2022-12-09T14:24:50.091Z,95420.53
2022-12-09T14:27:27.432Z,95428.13
2022-12-09T14:29:58.020Z,95426.22
2022-12-09T14:32:51.877Z,95424.38
2022-12-09T14:35:18.534Z,95437.66
2022-12-09T14:38:00.494Z,95434.22
2022-12-09T14:40:49.082Z,95433.03
2022-12-09T14:43:50.104Z,95436.06
2022-12-09T14:46:36.188Z,95451.31
2022-12-09T14:49:10.604Z,95445.16
2022-12-09T14:51:44.302Z,95444.53
2022-12-09T14:54:35.648Z,95451.50
2022-12-09T14:57:15.937Z,95446.59
2022-12-09T14:59:53.488Z,95448.81
2022-12-09T15:02:30.820Z,95453.31
2022-12-09T15:05:00.087Z,95460.56
2022-12-09T15:07:27.873Z,95453.63
2022-12-09T15:10:07.774Z,95457.81
2022-12-09T15:12:50.630Z,95464.84
2022-12-09T15:15:26.770Z,95455.38
2022-12-09T15:18:01.604Z,95456.53
2022-12-09T15:20:39.040Z,95465.31
2022-12-09T15:23:24.558Z,95466.44
2022-12-09T15:26:00.674Z,95465.28
2022-12-09T15:28:30.257Z,95472.59
2022-12-09T15:31:14.894Z,95470.63
2022-12-09T15:33:44.260Z,95478.75
2022-12-09T15:36:22.378Z,95477.97
2022-12-09T15:39:01.348Z,95488.97
2022-12-09T15:41:54.146Z,95495.09
2022-12-09T15:44:24.050Z,95479.47
2022-12-09T15:46:52.973Z,95475.66
2022-12-09T15:49:28.940Z,95467.06
2022-12-09T15:52:00.990Z,95479.88
2022-12-09T15:54:34.036Z,95495.47
2022-12-09T15:57:03.258Z,95488.69
2022-12-09T15:59:31.904Z,95487.97
2022-12-09T16:02:00.099Z,95494.06
2022-12-09T16:04:31.953Z,95494.81
2022-12-09T16:07:06.262Z,95487.53
2022-12-09T16:09:32.871Z,95487.88
2022-12-09T16:11:59.973Z,95493.66
2022-12-09T16:14:27.278Z,95497.75
2022-12-09T16:17:03.380Z,95501.97
2022-12-09T16:19:42.042Z,95500.00
2022-12-09T16:22:15.751Z,95495.44
2022-12-09T16:25:13.672Z,95501.63
2022-12-09T16:27:39.512Z,95499.41
2022-12-09T16:30:16.519Z,95508.06
2022-12-09T16:32:53.567Z,95499.69
2022-12-09T16:35:33.825Z,95492.09
2022-12-09T16:38:09.399Z,95500.19
2022-12-09T16:40:45.036Z,95498.69
2022-12-09T16:43:17.674Z,95499.09
2022-12-09T16:45:46.961Z,95495.31
2022-12-09T16:48:13.941Z,95501.78
2022-12-09T16:50:46.145Z,95498.25
2022-12-09T16:53:18.860Z,95501.38
2022-12-09T16:55:56.848Z,95492.69
2022-12-09T16:58:23.515Z,95491.50
2022-12-09T17:00:50.548Z,95494.53
2022-12-09T17:03:44.515Z,95499.91
2022-12-09T17:06:14.565Z,95486.19
2022-12-09T17:08:41.328Z,95483.88
2022-12-09T17:11:10.396Z,95485.78
2022-12-09T17:13:41.702Z,95491.13
2022-12-09T17:16:11.167Z,95491.13
2022-12-09T17:18:40.289Z,95499.88
2022-12-09T17:21:11.377Z,95496.78
2022-12-09T17:23:41.403Z,95503.22
2022-12-09T17:26:11.472Z,95498.25
2022-12-09T17:28:41.228Z,95507.41
2022-12-09T17:31:10.516Z,95505.09
2022-12-09T17:33:39.912Z,95512.69
2022-12-09T17:36:07.542Z,95508.50
2022-12-09T17:38:36.871Z,95512.38
2022-12-09T17:41:07.620Z,95512.00
2022-12-09T17:43:35.269Z,95523.78
2022-12-09T17:46:03.946Z,95531.72
2022-12-09T17:48:32.592Z,95528.34
2022-12-09T17:50:59.279Z,95534.81
2022-12-09T17:53:28.836Z,95538.31
2022-12-09T17:55:55.464Z,95537.88
2022-12-09T17:58:22.005Z,95537.81
2022-12-09T18:00:48.567Z,95539.34
2022-12-09T18:03:27.487Z,95541.97
2022-12-09T18:06:02.072Z,95542.72
2022-12-09T18:08:29.864Z,95541.97
2022-12-09T18:10:58.901Z,95542.28
2022-12-09T18:13:28.133Z,95530.09
2022-12-09T18:15:54.672Z,95527.09
2022-12-09T18:18:21.396Z,95527.13
2022-12-09T18:20:50.171Z,95532.84
2022-12-09T18:23:17.007Z,95537.38
2022-12-09T18:25:45.929Z,95543.84
2022-12-09T18:28:12.480Z,95544.63
2022-12-09T18:30:41.393Z,95537.38
2022-12-09T18:33:08.125Z,95542.00
2022-12-09T18:35:34.786Z,95555.41
2022-12-09T18:38:09.613Z,95547.69
2022-12-09T18:41:00.363Z,95553.78
2022-12-09T18:43:48.015Z,95557.22
2022-12-09T18:46:36.614Z,95552.69
2022-12-09T18:49:11.681Z,95559.56
2022-12-09T18:51:39.155Z,95558.47
2022-12-09T18:54:09.246Z,95556.22
2022-12-09T18:56:36.550Z,95552.03
2022-12-09T18:59:08.272Z,95553.88
2022-12-09T19:01:39.679Z,95561.47
2022-12-09T19:04:12.704Z,95559.91
2022-12-09T19:06:41.630Z,95571.72
2022-12-09T19:09:11.486Z,95564.06
2022-12-09T19:11:39.714Z,95572.81
2022-12-09T19:14:09.064Z,95573.19
2022-12-09T19:16:36.008Z,95564.13
2022-12-09T19:19:09.018Z,95566.44
2022-12-09T19:21:38.168Z,95556.97
2022-12-09T19:24:07.201Z,95559.19
2022-12-09T19:26:36.524Z,95561.78
2022-12-09T19:29:08.724Z,95562.94
2022-12-09T19:31:42.880Z,95572.41
2022-12-09T19:34:26.042Z,95576.19
2022-12-09T19:36:58.506Z,95575.41
2022-12-09T19:39:34.032Z,95566.66
2022-12-09T19:42:03.685Z,95572.75
2022-12-09T19:44:59.371Z,95570.84
2022-12-09T19:47:19.475Z,95577.72
2022-12-09T19:49:48.477Z,95578.47
2022-12-09T19:52:19.708Z,95574.28
2022-12-09T19:54:46.231Z,95578.09
2022-12-09T19:57:12.837Z,95576.69
2022-12-09T19:59:41.703Z,95586.25
2022-12-09T20:02:12.071Z,95581.63
2022-12-09T20:04:50.280Z,95582.78
2022-12-09T20:07:17.590Z,95585.50
2022-12-09T20:09:46.571Z,95578.97
2022-12-09T20:12:15.378Z,95588.13
2022-12-09T20:14:43.167Z,95591.59
2022-12-09T20:17:09.777Z,95591.16
2022-12-09T20:19:38.589Z,95596.94
2022-12-09T20:22:07.677Z,95607.59
2022-12-09T20:24:34.257Z,95613.28
2022-12-09T20:27:01.011Z,95609.50
2022-12-09T20:29:31.072Z,95616.00
2022-12-09T20:32:05.495Z,95605.34
2022-12-09T20:34:32.137Z,95606.13
2022-12-09T20:36:58.856Z,95608.41
2022-12-09T20:39:27.852Z,95611.41
2022-12-09T20:41:59.336Z,95619.81
2022-12-09T20:44:28.224Z,95616.75
2022-12-09T20:46:57.013Z,95619.81
2022-12-09T20:49:26.836Z,95618.66
2022-12-09T20:51:54.833Z,95631.97
2022-12-09T20:54:23.829Z,95633.09
2022-12-09T20:56:55.263Z,95635.38
2022-12-09T20:59:25.202Z,95631.13
2022-12-09T21:01:56.693Z,95625.03
2022-12-09T21:04:23.238Z,95630.84
2022-12-09T21:06:50.002Z,95631.59
2022-12-09T21:09:21.448Z,95622.78
2022-12-09T21:11:49.993Z,95626.25
2022-12-09T21:14:19.950Z,95629.69
2022-12-09T21:16:50.230Z,95623.50
2022-12-09T21:19:25.831Z,95622.00
2022-12-09T21:21:55.089Z,95625.06
2022-12-09T21:24:23.962Z,95625.34
2022-12-09T21:26:53.782Z,95622.72
2022-12-09T21:29:20.472Z,95628.47
2022-12-09T21:31:48.748Z,95630.34
2022-12-09T21:34:15.440Z,95626.16
2022-12-09T21:36:43.989Z,95625.78
2022-12-09T21:39:14.896Z,95625.41
2022-12-09T21:41:44.392Z,95619.72
2022-12-09T21:44:17.681Z,95625.78
2022-12-09T21:46:44.858Z,95625.78
2022-12-09T21:49:12.118Z,95626.19
2022-12-09T21:51:41.176Z,95619.72
2022-12-09T21:54:10.876Z,95617.06
2022-12-09T21:56:37.951Z,95616.72
2022-12-09T21:59:10.183Z,95611.81
2022-12-09T22:01:41.251Z,95621.69
2022-12-09T22:04:13.105Z,95619.03
2022-12-09T22:06:39.974Z,95629.31
2022-12-09T22:09:07.705Z,95628.53
2022-12-09T22:11:36.723Z,95630.78
2022-12-09T22:14:04.474Z,95632.69
2022-12-09T22:16:34.436Z,95632.66
2022-12-09T22:19:02.651Z,95637.66
2022-12-09T22:21:31.396Z,95635.78
2022-12-09T22:24:03.932Z,95629.34
2022-12-09T22:26:30.863Z,95635.81
2022-12-09T22:29:03.678Z,95631.97
2022-12-09T22:31:36.772Z,95630.44
2022-12-09T22:34:10.887Z,95628.88
2022-12-09T22:36:41.045Z,95620.88
2022-12-09T22:39:13.898Z,95622.44
2022-12-09T22:41:41.484Z,95622.13
2022-12-09T22:44:13.178Z,95617.53
2022-12-09T22:46:42.362Z,95625.16
2022-12-09T22:49:17.616Z,95632.34
2022-12-09T22:51:50.046Z,95629.69
2022-12-09T22:54:19.399Z,95628.94
2022-12-09T22:56:50.785Z,95631.97
2022-12-09T22:59:19.874Z,95635.41
2022-12-09T23:01:49.058Z,95632.31
2022-12-09T23:04:17.775Z,95635.38
2022-12-09T23:06:45.067Z,95631.94
2022-12-09T23:09:18.571Z,95628.59
2022-12-09T23:11:45.929Z,95627.16
2022-12-09T23:14:15.819Z,95630.16
2022-12-09T23:16:43.114Z,95641.56
2022-12-09T23:19:11.026Z,95641.50
2022-12-09T23:21:39.863Z,95643.41
2022-12-09T23:24:12.187Z,95641.13
2022-12-09T23:26:40.812Z,95627.06
2022-12-09T23:29:11.670Z,95628.63
2022-12-09T23:31:41.143Z,95628.25
2022-12-09T23:34:12.301Z,95626.72
2022-12-09T23:36:43.277Z,95629.38
2022-12-09T23:39:12.688Z,95628.28
2022-12-09T23:41:40.912Z,95636.63
2022-12-09T23:44:11.631Z,95633.97
2022-12-09T23:46:38.448Z,95626.38
2022-12-09T23:49:06.600Z,95637.44
2022-12-09T23:51:35.267Z,95637.03
2022-12-09T23:54:07.018Z,95624.47
2022-12-09T23:56:39.017Z,95625.63
2022-12-09T23:59:09.703Z,95616.47
